Time;durP1;ratioP1;P1;durP2;ratioP2;P2;SDS_P1;SDS_P2;PMS_P1;PMS_P2;Temp;Humidity;BMP_temperature;BMP_pressure;BME280_temperature;BME280_humidity;BME280_pressure;Samples;Min_cycle;Max_cycle;Signal;HPM_P1;HPM_P2
2021/11/12 00:04:33;;;;;;;28.17;19.30;;;7.60;99.90;;;;;;5033310;28;20095;-79
2021/11/12 00:12:34;;;;;;;32.47;21.42;;;7.10;99.90;;;;;;5033465;28;20395;-76
2021/11/12 00:15:00;;;;;;;32.33;20.80;;;7.00;99.90;;;;;;5015134;28;20122;-78
2021/11/12 00:17:30;;;;;;;31.05;21.77;;;6.90;99.90;;;;;;5032938;28;20029;-78
2021/11/12 00:19:57;;;;;;;29.33;20.20;;;6.80;99.90;;;;;;5032853;28;20041;-79
2021/11/12 00:22:23;;;;;;;34.08;21.65;;;6.90;99.90;;;;;;5033321;28;20028;-79
2021/11/12 00:24:53;;;;;;;31.50;21.75;;;6.90;99.90;;;;;;5015292;28;20404;-78
2021/11/12 00:27:21;;;;;;;31.10;21.27;;;7.20;99.90;;;;;;5035511;28;20022;-80
2021/11/12 00:29:57;;;;;;;32.00;22.35;;;6.90;99.90;;;;;;5019342;28;20434;-77
2021/11/12 00:39:57;;;;;;;37.67;24.10;;;7.10;99.90;;;;;;5036697;28;20022;-78
2021/11/12 00:42:30;;;;;;;36.53;23.33;;;7.20;99.90;;;;;;5018862;28;20072;-79
2021/11/12 00:45:06;;;;;;;37.15;23.52;;;6.80;99.90;;;;;;5036861;28;20041;-76
2021/11/12 00:50:11;;;;;;;33.13;22.33;;;6.80;99.90;;;;;;5036944;28;20036;-79
2021/11/12 00:52:43;;;;;;;31.65;21.85;;;7.00;99.90;;;;;;5036968;28;20074;-78
2021/11/12 00:55:09;;;;;;;38.90;20.85;;;7.00;99.90;;;;;;5036974;28;20450;-79
2021/11/12 00:57:35;;;;;;;35.03;23.55;;;7.10;99.90;;;;;;5036490;28;20037;-79
2021/11/12 01:00:04;;;;;;;29.55;20.35;;;7.20;99.90;;;;;;5036501;28;20407;-78
2021/11/12 01:02:30;;;;;;;31.85;22.05;;;7.30;99.90;;;;;;5036399;28;20053;-77
2021/11/12 01:04:56;;;;;;;31.55;21.33;;;7.30;99.90;;;;;;5036733;28;20109;-77
2021/11/12 01:07:21;;;;;;;30.35;20.25;;;7.30;99.90;;;;;;5018650;28;20448;-80
2021/11/12 01:09:47;;;;;;;33.95;22.92;;;7.30;99.90;;;;;;5036647;28;20101;-77
2021/11/12 01:12:13;;;;;;;37.70;23.60;;;7.30;99.90;;;;;;5036559;28;20037;-78
2021/11/12 01:14:39;;;;;;;30.67;19.83;;;7.30;99.90;;;;;;5018479;28;20021;-79
2021/11/12 01:17:04;;;;;;;32.10;20.98;;;7.30;99.90;;;;;;5036183;28;20028;-77
2021/11/12 01:19:30;;;;;;;31.83;21.10;;;7.10;99.90;;;;;;5035974;28;20064;-78
2021/11/12 01:21:56;;;;;;;33.78;20.73;;;6.80;99.90;;;;;;5018440;28;20426;-79
2021/11/12 01:24:22;;;;;;;34.03;21.98;;;6.60;99.90;;;;;;5036379;28;20397;-79
2021/11/12 01:26:48;;;;;;;32.45;20.15;;;6.40;99.90;;;;;;5018299;28;20060;-77
2021/11/12 01:29:14;;;;;;;29.02;19.70;;;6.50;99.90;;;;;;5036055;28;20495;-79
2021/11/12 01:31:40;;;;;;;28.35;19.92;;;6.50;99.90;;;;;;5036251;28;20021;-78
2021/11/12 01:34:10;;;;;;;31.42;20.40;;;6.60;99.90;;;;;;5035917;28;20475;-80
2021/11/12 01:36:41;;;;;;;31.40;19.55;;;6.80;99.90;;;;;;5035928;28;20104;-80
2021/11/12 01:39:11;;;;;;;31.73;19.98;;;6.80;99.90;;;;;;5035293;28;20040;-78
2021/11/12 01:41:40;;;;;;;27.73;19.60;;;6.70;99.90;;;;;;5036090;28;20501;-77
2021/11/12 01:44:08;;;;;;;29.52;18.50;;;6.70;99.90;;;;;;5035721;28;20056;-78
2021/11/12 01:49:16;;;;;;;37.10;20.70;;;6.50;99.90;;;;;;5036199;28;20387;-79
2021/11/12 01:54:57;;;;;;;32.95;21.05;;;6.50;99.90;;;;;;5035808;28;20025;-79
2021/11/12 01:59:22;;;;;;;33.85;22.02;;;6.70;99.90;;;;;;5035939;28;20026;-78
2021/11/12 02:01:49;;;;;;;35.42;20.90;;;6.70;99.90;;;;;;5017698;28;20048;-78
2021/11/12 02:04:18;;;;;;;27.95;18.85;;;6.70;99.90;;;;;;5035620;28;20021;-76
2021/11/12 02:06:44;;;;;;;31.15;19.35;;;6.40;99.90;;;;;;5035280;28;20026;-80
2021/11/12 02:09:21;;;;;;;29.88;19.92;;;6.40;99.90;;;;;;5035578;28;20100;-78
2021/11/12 02:13:13;;;;;;;30.13;20.13;;;6.40;99.90;;;;;;5035756;28;20022;-79
2021/11/12 02:15:04;;;;;;;30.83;19.95;;;6.60;99.90;;;;;;5013474;28;20038;-77
2021/11/12 02:17:34;;;;;;;28.42;18.83;;;6.60;99.90;;;;;;5035156;28;20036;-78
2021/11/12 02:20:13;;;;;;;31.65;19.27;;;6.80;99.90;;;;;;5034881;28;20048;-79
2021/11/12 02:22:40;;;;;;;32.30;19.65;;;6.80;99.90;;;;;;5035343;28;20021;-79
2021/11/12 02:25:11;;;;;;;27.77;18.80;;;6.90;99.90;;;;;;5017254;28;20032;-78
2021/11/12 02:30:24;;;;;;;29.65;18.92;;;7.10;99.90;;;;;;5035451;28;20434;-77
2021/11/12 02:33:04;;;;;;;33.25;20.48;;;7.20;99.90;;;;;;5035055;28;20028;-79
2021/11/12 02:35:34;;;;;;;30.33;19.63;;;7.10;99.90;;;;;;5034740;28;20072;-77
2021/11/12 02:38:03;;;;;;;25.63;17.35;;;7.00;99.90;;;;;;5016893;28;20029;-78
2021/11/12 02:40:29;;;;;;;28.73;19.02;;;7.10;99.90;;;;;;5034640;28;20033;-78
2021/11/12 02:42:54;;;;;;;29.55;20.60;;;7.00;99.90;;;;;;5034893;28;20018;-80
2021/11/12 02:45:20;;;;;;;28.45;19.58;;;6.90;99.90;;;;;;5035109;28;20079;-78
2021/11/12 02:47:47;;;;;;;31.92;19.77;;;6.60;99.90;;;;;;5016798;28;20057;-78
2021/11/12 02:50:13;;;;;;;29.65;19.95;;;6.50;99.90;;;;;;5033643;28;20072;-79
2021/11/12 02:52:40;;;;;;;31.73;20.25;;;6.50;99.90;;;;;;5034472;28;20021;-79
2021/11/12 02:55:07;;;;;;;33.05;21.35;;;6.50;99.90;;;;;;5016707;28;20040;-80
2021/11/12 02:57:35;;;;;;;31.13;18.23;;;6.60;99.90;;;;;;5034315;28;20029;-78
2021/11/12 03:00:01;;;;;;;29.80;19.42;;;6.80;99.90;;;;;;5034240;28;20112;-79
2021/11/12 03:02:27;;;;;;;32.83;20.58;;;6.80;99.90;;;;;;5034203;28;20067;-78
2021/11/12 03:04:53;;;;;;;29.55;20.08;;;6.80;99.90;;;;;;5034454;28;20029;-78
2021/11/12 03:07:18;;;;;;;33.70;21.00;;;6.90;99.90;;;;;;5016412;28;20022;-78
2021/11/12 03:09:44;;;;;;;31.20;19.75;;;6.70;99.90;;;;;;5034142;28;20026;-78
2021/11/12 03:12:10;;;;;;;36.40;22.10;;;6.80;99.90;;;;;;5034125;28;20101;-78
2021/11/12 03:14:36;;;;;;;35.78;23.00;;;6.80;99.90;;;;;;5034027;28;20493;-78
2021/11/12 03:17:03;;;;;;;31.70;21.98;;;6.80;99.90;;;;;;5034070;28;20051;-78
2021/11/12 03:19:30;;;;;;;34.83;22.02;;;6.80;99.90;;;;;;5033833;28;20453;-80
2021/11/12 03:22:04;;;;;;;35.17;23.00;;;6.80;99.90;;;;;;5034183;28;20025;-79
2021/11/12 03:24:44;;;;;;;29.48;19.95;;;7.00;99.90;;;;;;5034169;28;20124;-78
2021/11/12 04:02:30;;;;;;;34.20;22.52;;;6.40;99.90;;;;;;5033217;28;20036;-78
2021/11/12 04:17:06;;;;;;;26.92;19.48;;;6.50;99.90;;;;;;5032988;28;20067;-77
2021/11/12 05:10:47;;;;;;;29.13;18.58;;;6.50;99.90;;;;;;5032426;28;20095;-78
2021/11/12 05:43:50;;;;;;;27.23;17.98;;;6.20;99.90;;;;;;5036112;28;20056;-77
2021/11/12 05:46:20;;;;;;;24.88;17.40;;;6.30;99.90;;;;;;5017714;28;20030;-79
2021/11/12 05:51:38;;;;;;;24.70;15.95;;;6.20;99.90;;;;;;5036255;28;20236;-79
2021/11/12 05:56:52;;;;;;;30.73;19.65;;;6.20;99.90;;;;;;5035866;28;20040;-78
2021/11/12 05:59:17;;;;;;;27.33;18.67;;;6.00;99.90;;;;;;5035685;28;20029;-79
2021/11/12 06:01:45;;;;;;;31.38;19.73;;;5.90;99.90;;;;;;5035963;28;20029;-78
2021/11/12 06:04:12;;;;;;;26.75;19.58;;;5.80;99.90;;;;;;5035402;28;20029;-79
2021/11/12 06:06:38;;;;;;;26.73;18.27;;;5.80;99.90;;;;;;5035349;28;20033;-79
2021/11/12 06:09:05;;;;;;;27.80;18.77;;;5.80;99.90;;;;;;5035306;28;20021;-79
2021/11/12 06:11:31;;;;;;;27.75;18.55;;;5.90;99.90;;;;;;5035521;28;20025;-79
2021/11/12 06:13:58;;;;;;;29.15;18.63;;;6.00;99.90;;;;;;5017462;28;20027;-77
2021/11/12 06:16:24;;;;;;;25.85;18.73;;;6.00;99.90;;;;;;5035318;28;20391;-77
2021/11/12 06:18:51;;;;;;;26.55;18.00;;;6.00;99.90;;;;;;5034858;28;20439;-77
2021/11/12 06:21:17;;;;;;;26.25;17.33;;;5.90;99.90;;;;;;5035383;28;20100;-77
2021/11/12 06:23:43;;;;;;;25.23;17.48;;;5.90;99.90;;;;;;5017094;28;20029;-77
2021/11/12 06:26:09;;;;;;;27.52;19.25;;;6.00;99.90;;;;;;5035084;28;20074;-77
2021/11/12 06:28:36;;;;;;;27.20;18.00;;;6.20;99.90;;;;;;5034899;28;20071;-78
2021/11/12 06:31:02;;;;;;;27.45;18.05;;;6.30;99.90;;;;;;5034831;28;20021;-78
2021/11/12 06:33:29;;;;;;;28.98;17.35;;;6.40;99.90;;;;;;5034840;28;20052;-77
2021/11/12 06:35:55;;;;;;;26.08;16.88;;;6.40;99.90;;;;;;5034791;28;20029;-78
2021/11/12 06:38:24;;;;;;;27.52;17.42;;;6.30;99.90;;;;;;5034927;28;20030;-77
2021/11/12 06:40:51;;;;;;;26.00;16.77;;;6.20;99.90;;;;;;5034975;28;20430;-79
2021/11/12 06:43:24;;;;;;;30.63;19.52;;;6.00;99.90;;;;;;5016867;28;20028;-79
2021/11/12 06:51:24;;;;;;;23.45;16.42;;;6.10;99.90;;;;;;5035103;28;20036;-80
2021/11/12 06:53:51;;;;;;;23.02;16.35;;;6.30;99.90;;;;;;5034726;28;20025;-79
2021/11/12 06:56:21;;;;;;;26.17;17.40;;;6.50;99.90;;;;;;5034977;28;20104;-79
2021/11/12 06:58:48;;;;;;;29.27;19.02;;;6.50;99.90;;;;;;5034572;28;20040;-78
2021/11/12 07:01:14;;;;;;;27.05;17.70;;;6.70;99.90;;;;;;5034291;28;20524;-78
2021/11/12 07:03:40;;;;;;;26.40;18.73;;;6.80;99.90;;;;;;5034573;28;20029;-77
2021/11/12 07:06:06;;;;;;;32.40;21.17;;;6.80;99.90;;;;;;5034191;28;20093;-78
2021/11/12 07:08:33;;;;;;;28.38;20.08;;;6.70;99.90;;;;;;5034206;28;20061;-80
2021/11/12 07:10:59;;;;;;;30.20;20.38;;;6.70;99.90;;;;;;5034361;28;20018;-78
2021/11/12 07:13:25;;;;;;;31.38;19.63;;;6.70;99.90;;;;;;5034113;28;20372;-76
2021/11/12 07:15:55;;;;;;;30.60;19.65;;;6.70;99.90;;;;;;5034061;28;20101;-80
2021/11/12 07:18:22;;;;;;;28.47;19.07;;;6.70;99.90;;;;;;5033631;28;20402;-77
2021/11/12 07:20:49;;;;;;;30.75;20.80;;;6.80;99.90;;;;;;5034270;28;20645;-78
2021/11/12 07:23:16;;;;;;;54.97;33.00;;;6.80;99.90;;;;;;5033862;28;20045;-79
2021/11/12 07:25:43;;;;;;;34.80;23.55;;;6.80;99.90;;;;;;5034107;28;20430;-79
2021/11/12 07:28:09;;;;;;;32.20;20.48;;;6.90;99.90;;;;;;5016110;28;20391;-77
2021/11/12 07:30:38;;;;;;;28.77;19.48;;;7.00;99.90;;;;;;5033739;28;20155;-79
2021/11/12 07:33:04;;;;;;;29.58;19.38;;;7.00;99.90;;;;;;5034243;28;20025;-80
2021/11/12 07:35:35;;;;;;;31.50;21.10;;;7.00;99.90;;;;;;5033427;28;20032;-77
2021/11/12 07:38:09;;;;;;;38.10;23.98;;;7.00;99.90;;;;;;5033386;28;20496;-79
2021/11/12 07:48:24;;;;;;;36.97;24.73;;;7.20;99.90;;;;;;5074052;28;20066;-77
2021/11/12 07:50:49;;;;;;;38.85;23.80;;;7.30;99.90;;;;;;5073448;28;20024;-78
2021/11/12 07:53:15;;;;;;;38.58;24.67;;;7.30;99.90;;;;;;5073411;28;20179;-77
2021/11/12 07:55:41;;;;;;;43.17;29.73;;;7.30;99.90;;;;;;5073361;28;20516;-77
2021/11/12 07:58:07;;;;;;;33.88;23.40;;;7.30;99.90;;;;;;5073253;28;20025;-77
2021/11/12 08:00:33;;;;;;;38.15;22.88;;;7.30;99.90;;;;;;5073598;28;20021;-76
2021/11/12 08:02:59;;;;;;;36.30;25.23;;;7.30;99.90;;;;;;5073843;28;20021;-77
2021/11/12 08:05:29;;;;;;;35.85;22.92;;;7.30;99.90;;;;;;5073784;28;20032;-76
2021/11/12 08:08:00;;;;;;;39.35;23.80;;;7.30;99.90;;;;;;5073553;28;20077;-78
2021/11/12 08:10:29;;;;;;;37.42;22.98;;;7.40;99.90;;;;;;5073758;28;20082;-77
2021/11/12 08:13:11;;;;;;;34.92;22.67;;;7.40;99.90;;;;;;5073484;28;20021;-76
2021/11/12 08:15:46;;;;;;;37.50;22.70;;;7.40;99.90;;;;;;5073466;28;20108;-77
2021/11/12 08:23:29;;;;;;;43.65;28.88;;;7.50;99.90;;;;;;5073076;28;20096;-76
2021/11/12 08:26:09;;;;;;;44.40;25.25;;;7.50;99.90;;;;;;5073316;28;20048;-75
2021/11/12 08:31:46;;;;;;;44.58;25.83;;;7.70;99.90;;;;;;5073337;28;20035;-77
2021/11/12 08:44:16;;;;;;;48.30;27.05;;;8.10;99.90;;;;;;5073118;28;20558;-77
2021/11/12 08:47:08;;;;;;;46.42;28.17;;;8.20;99.90;;;;;;5072784;28;20409;-77
2021/11/12 08:49:32;;;;;;;44.92;28.30;;;8.30;99.90;;;;;;5076341;28;20112;-76
2021/11/12 08:52:00;;;;;;;60.22;36.65;;;8.50;99.90;;;;;;5077285;28;20017;-78
2021/11/12 08:54:34;;;;;;;53.22;33.20;;;8.60;99.90;;;;;;5058745;28;20050;-79
2021/11/12 08:57:00;;;;;;;48.40;30.40;;;8.80;99.90;;;;;;5077206;28;20024;-72
2021/11/12 08:59:26;;;;;;;54.00;34.17;;;9.00;99.90;;;;;;5076769;28;20039;-72
2021/11/12 09:01:52;;;;;;;55.15;32.88;;;9.20;99.90;;;;;;5076520;28;20021;-71
2021/11/12 09:04:18;;;;;;;56.50;37.78;;;9.40;99.90;;;;;;5076472;28;20082;-73
2021/11/12 09:06:45;;;;;;;44.30;27.65;;;9.50;99.90;;;;;;5076425;28;20024;-73
2021/11/12 09:09:11;;;;;;;43.72;27.52;;;9.70;99.90;;;;;;5076369;28;20059;-74
2021/11/12 09:11:39;;;;;;;41.58;25.30;;;9.90;99.90;;;;;;5076394;28;20052;-73
2021/11/12 09:14:07;;;;;;;41.38;24.35;;;10.10;99.90;;;;;;5076264;28;20028;-74
2021/11/12 09:16:35;;;;;;;38.42;25.35;;;10.30;99.90;;;;;;5076502;28;20028;-73
2021/11/12 09:19:03;;;;;;;37.90;24.45;;;10.30;99.90;;;;;;5076116;28;20078;-72
2021/11/12 09:21:30;;;;;;;37.80;24.73;;;10.40;99.90;;;;;;5076175;28;20025;-74
2021/11/12 09:23:57;;;;;;;35.35;22.60;;;10.60;99.90;;;;;;5076664;28;20017;-72
2021/11/12 09:26:24;;;;;;;36.58;24.50;;;10.70;99.90;;;;;;5076029;28;20044;-74
2021/11/12 09:28:50;;;;;;;38.33;24.80;;;10.90;99.90;;;;;;5076055;28;20081;-75
2021/11/12 09:31:16;;;;;;;46.42;30.25;;;11.20;99.90;;;;;;5075996;28;20028;-72
2021/11/12 09:33:42;;;;;;;52.67;32.67;;;11.50;99.90;;;;;;5076213;28;20029;-72
2021/11/12 09:36:09;;;;;;;69.78;42.85;;;11.60;99.90;;;;;;5075873;28;20032;-74
2021/11/12 09:38:36;;;;;;;48.65;31.98;;;11.80;99.90;;;;;;5076375;28;20033;-73
2021/11/12 09:41:05;;;;;;;46.95;30.60;;;11.90;99.90;;;;;;5075835;28;20044;-73
2021/11/12 09:43:31;;;;;;;45.95;29.58;;;12.10;99.90;;;;;;5075703;28;20385;-74
2021/11/12 09:45:57;;;;;;;46.17;30.75;;;12.10;99.90;;;;;;5075565;28;20123;-70
2021/11/12 09:48:23;;;;;;;41.03;28.40;;;12.00;99.90;;;;;;5076218;28;20367;-73
2021/11/12 09:50:50;;;;;;;38.13;25.50;;;11.80;99.90;;;;;;5075686;28;20094;-71
2021/11/12 09:53:16;;;;;;;37.42;24.98;;;11.70;99.90;;;;;;5076166;28;20024;-73
2021/11/12 09:55:43;;;;;;;35.20;24.25;;;11.50;99.90;;;;;;5076147;28;20111;-72
2021/11/12 09:58:09;;;;;;;32.90;20.58;;;11.40;99.90;;;;;;5075973;28;20474;-71
2021/11/12 10:00:35;;;;;;;30.45;19.90;;;11.30;99.90;;;;;;5074817;28;20025;-74
2021/11/12 10:03:02;;;;;;;29.08;20.50;;;11.30;99.90;;;;;;5075816;28;20100;-74
2021/11/12 10:05:42;;;;;;;29.98;21.23;;;11.40;99.90;;;;;;5057528;28;20020;-80
2021/11/12 10:08:25;;;;;;;34.33;22.50;;;11.40;99.90;;;;;;5075740;28;20052;-76
2021/11/12 10:10:56;;;;;;;33.90;22.63;;;11.40;99.90;;;;;;5075551;28;20020;-71
2021/11/12 10:13:29;;;;;;;31.23;20.92;;;11.30;99.90;;;;;;5075556;28;20025;-72
2021/11/12 10:16:16;;;;;;;27.35;18.00;;;11.30;99.90;;;;;;5075196;28;20020;-70
2021/11/12 10:19:05;;;;;;;25.65;17.98;;;11.30;99.90;;;;;;5075649;28;20024;-71
2021/11/12 10:21:37;;;;;;;26.50;17.48;;;11.20;99.90;;;;;;5075570;28;20369;-72
2021/11/12 10:24:05;;;;;;;30.17;19.25;;;11.30;99.90;;;;;;5075269;28;20029;-70
2021/11/12 10:26:33;;;;;;;26.63;18.40;;;11.40;99.90;;;;;;5075501;28;20439;-72
2021/11/12 10:29:04;;;;;;;25.95;16.70;;;11.50;99.90;;;;;;5074914;28;20028;-70
2021/11/12 10:31:42;;;;;;;25.27;15.85;;;11.60;99.90;;;;;;5075179;28;20029;-70
2021/11/12 10:34:13;;;;;;;22.00;15.35;;;11.70;99.90;;;;;;5075117;28;20032;-71
2021/11/12 10:37:10;;;;;;;21.65;14.50;;;11.90;99.90;;;;;;5075027;28;20469;-71
2021/11/12 10:40:10;;;;;;;22.17;13.93;;;11.90;99.90;;;;;;5058038;28;20072;-70
2021/11/12 10:42:44;;;;;;;18.63;13.43;;;12.00;99.90;;;;;;5060889;28;20120;-71
2021/11/12 10:45:19;;;;;;;26.55;14.55;;;12.20;99.90;;;;;;5074462;28;20032;-72
2021/11/12 10:48:03;;;;;;;20.90;14.05;;;12.30;99.90;;;;;;5074860;28;20025;-71
2021/11/12 10:50:35;;;;;;;19.60;14.55;;;12.30;99.90;;;;;;5074754;28;20086;-71
2021/11/12 10:53:05;;;;;;;23.05;15.43;;;12.30;99.90;;;;;;5074775;28;20025;-73
2021/11/12 10:55:31;;;;;;;28.67;15.07;;;12.30;99.90;;;;;;5074389;28;20032;-70
2021/11/12 10:58:03;;;;;;;25.42;13.63;;;12.30;99.90;;;;;;5074506;28;20028;-71
2021/11/12 11:00:39;;;;;;;18.58;12.98;;;12.20;99.90;;;;;;5074250;28;20035;-71
2021/11/12 11:03:17;;;;;;;19.58;14.07;;;12.30;99.90;;;;;;5074516;28;20024;-71
2021/11/12 11:05:44;;;;;;;28.83;18.17;;;12.40;99.90;;;;;;5074786;28;20017;-71
2021/11/12 11:08:22;;;;;;;34.90;23.00;;;12.40;99.90;;;;;;5074131;28;20070;-73
2021/11/12 11:11:02;;;;;;;40.03;28.00;;;12.40;99.90;;;;;;5073429;28;20025;-71
2021/11/12 11:13:33;;;;;;;31.40;22.77;;;12.30;99.90;;;;;;5074599;28;20029;-72
2021/11/12 11:16:04;;;;;;;35.80;23.42;;;12.30;99.90;;;;;;5074536;28;20050;-71
2021/11/12 11:18:36;;;;;;;23.77;15.95;;;12.30;99.90;;;;;;5073887;28;20048;-71
2021/11/12 11:21:07;;;;;;;25.25;18.52;;;12.30;99.90;;;;;;5073941;28;20028;-72
2021/11/12 11:23:48;;;;;;;28.63;18.48;;;12.20;99.90;;;;;;5055906;28;20112;-73
2021/11/12 11:26:17;;;;;;;26.13;17.77;;;12.20;99.90;;;;;;5073800;28;20032;-74
2021/11/12 11:28:42;;;;;;;30.73;19.60;;;12.20;99.90;;;;;;5074302;28;20040;-71
2021/11/12 11:31:12;;;;;;;26.65;19.52;;;12.20;99.90;;;;;;5074274;28;20028;-73
2021/11/12 11:33:40;;;;;;;27.63;18.23;;;12.30;99.90;;;;;;5073664;28;20047;-71
2021/11/12 11:36:06;;;;;;;26.17;17.42;;;12.40;99.90;;;;;;5073794;28;20072;-70
2021/11/12 11:38:35;;;;;;;32.40;20.40;;;12.30;99.90;;;;;;5073538;28;20028;-71
2021/11/12 11:41:04;;;;;;;26.38;17.38;;;12.30;99.90;;;;;;5073872;28;20021;-71
2021/11/12 11:43:30;;;;;;;27.40;19.63;;;12.30;99.90;;;;;;5073730;28;20017;-71
2021/11/12 11:46:00;;;;;;;23.33;15.73;;;12.30;99.90;;;;;;5073367;28;20045;-71
2021/11/12 11:48:26;;;;;;;;;;;12.50;99.90;;;;;;5074187;28;20017;-70
2021/11/12 11:50:55;;;;;;;22.75;16.02;;;12.60;99.90;;;;;;5073739;28;19912;-70
2021/11/12 11:53:39;;;;;;;22.95;15.52;;;12.60;99.90;;;;;;5073406;28;20093;-71
2021/11/12 11:56:39;;;;;;;23.42;15.15;;;12.70;99.90;;;;;;5073683;28;20024;-71
2021/11/12 11:59:29;;;;;;;24.38;15.80;;;12.80;99.90;;;;;;5051415;28;20036;-72
2021/11/12 12:02:05;;;;;;;25.45;15.88;;;12.80;99.90;;;;;;5073854;28;20056;-70
2021/11/12 12:04:54;;;;;;;23.25;14.60;;;12.90;99.90;;;;;;5073856;28;20097;-72
2021/11/12 12:07:25;;;;;;;24.10;13.73;;;12.90;99.90;;;;;;5059290;28;20467;-73
2021/11/12 12:10:00;;;;;;;21.75;15.68;;;12.90;99.90;;;;;;5073752;28;20416;-72
2021/11/12 12:12:35;;;;;;;23.48;12.73;;;13.00;99.90;;;;;;5073497;28;20025;-71
2021/11/12 12:15:04;;;;;;;23.73;13.32;;;12.90;99.90;;;;;;5073182;28;20021;-71
2021/11/12 12:17:32;;;;;;;22.00;13.40;;;12.90;99.90;;;;;;5073168;28;20028;-72
2021/11/12 13:22:54;;;;;;;11.75;8.02;;;13.00;99.90;;;;;;5079531;28;20028;-71
2021/11/12 13:25:29;;;;;;;12.10;8.60;;;13.10;99.90;;;;;;5079235;28;20461;-69
2021/11/12 13:28:15;;;;;;;14.57;8.82;;;13.10;99.90;;;;;;5079476;28;20054;-73
2021/11/12 13:30:51;;;;;;;11.50;7.00;;;13.20;99.90;;;;;;5079760;28;20090;-71
2021/11/12 13:33:35;;;;;;;11.00;6.88;;;13.20;99.90;;;;;;5079279;28;20024;-70
2021/11/12 13:36:07;;;;;;;10.23;6.55;;;13.20;99.90;;;;;;5076137;28;20432;-72
2021/11/12 13:38:45;;;;;;;14.07;6.63;;;13.30;99.90;;;;;;5075881;28;20449;-72
2021/11/12 13:41:14;;;;;;;9.15;6.38;;;13.30;99.90;;;;;;5076401;28;20020;-72
2021/11/12 13:43:43;;;;;;;10.18;6.10;;;13.30;99.90;;;;;;5076304;28;20074;-72
2021/11/12 13:46:10;;;;;;;10.35;5.43;;;13.40;99.90;;;;;;5075751;28;20048;-70
2021/11/12 13:48:47;;;;;;;9.10;5.45;;;13.30;99.90;;;;;;5075996;28;20059;-72
2021/11/12 13:51:17;;;;;;;11.85;5.97;;;13.30;99.90;;;;;;5075714;28;20477;-71
2021/11/12 13:53:45;;;;;;;8.90;5.28;;;13.40;99.90;;;;;;5075604;28;20021;-71
2021/11/12 13:56:11;;;;;;;9.43;4.85;;;13.40;99.90;;;;;;5075844;28;20493;-71
2021/11/12 13:58:39;;;;;;;7.95;4.53;;;13.40;99.90;;;;;;5075727;28;20063;-72
2021/11/12 14:01:15;;;;;;;6.72;4.50;;;13.40;99.90;;;;;;5075738;28;20108;-72
2021/11/12 14:03:41;;;;;;;8.88;4.10;;;13.50;99.90;;;;;;5075496;28;20021;-70
2021/11/12 14:06:09;;;;;;;8.43;4.00;;;13.50;99.90;;;;;;5075403;28;20025;-72
2021/11/12 14:08:44;;;;;;;7.57;4.22;;;13.50;99.90;;;;;;5075621;28;20021;-72
2021/11/12 14:11:27;;;;;;;14.52;10.27;;;13.60;99.90;;;;;;5075871;28;20028;-70
2021/11/12 14:13:56;;;;;;;24.60;17.55;;;13.70;99.90;;;;;;5075591;28;20028;-71
2021/11/12 14:16:59;;;;;;;10.75;5.93;;;13.60;99.90;;;;;;5075166;28;20375;-71
2021/11/12 14:22:14;;;;;;;10.32;8.45;;;13.70;99.90;;;;;;5075413;28;20074;-73
2021/11/12 14:24:49;;;;;;;5.75;3.92;;;13.70;99.90;;;;;;5075405;28;20031;-72
2021/11/12 14:45:54;;;;;;;8.20;3.97;;;13.80;99.90;;;;;;5074794;28;20083;-72
2021/11/12 14:51:01;;;;;;;12.38;4.03;;;13.80;99.90;;;;;;5074763;28;20070;-72
2021/11/12 14:53:49;;;;;;;12.60;4.47;;;13.80;99.90;;;;;;5074770;28;20029;-70
2021/11/12 14:56:22;;;;;;;9.80;3.65;;;13.80;99.90;;;;;;5074965;28;20021;-74
2021/11/12 14:59:00;;;;;;;11.35;3.90;;;13.80;99.90;;;;;;5074586;28;20024;-71
2021/11/12 15:01:29;;;;;;;11.10;4.20;;;13.90;99.90;;;;;;5074593;28;20092;-71
2021/11/12 15:03:55;;;;;;;12.52;4.32;;;13.90;99.90;;;;;;5074218;28;20016;-72
2021/11/12 15:06:23;;;;;;;10.55;4.38;;;13.90;99.90;;;;;;5074165;28;20028;-72
2021/11/12 15:11:25;;;;;;;11.57;4.32;;;13.90;99.90;;;;;;5074129;28;20029;-73
2021/11/12 15:13:53;;;;;;;14.57;4.32;;;13.90;99.90;;;;;;5074431;28;20161;-73
2021/11/12 15:16:24;;;;;;;13.02;3.80;;;13.90;99.90;;;;;;5074059;28;20385;-69
2021/11/12 15:18:53;;;;;;;14.57;4.22;;;13.80;99.90;;;;;;5073935;28;20394;-73
2021/11/12 15:21:26;;;;;;;8.65;3.60;;;13.80;99.90;;;;;;5073926;28;20013;-71
2021/11/12 15:34:12;;;;;;;15.05;4.72;;;13.80;99.90;;;;;;5073949;28;20060;-71
2021/11/12 15:36:45;;;;;;;10.27;4.85;;;13.80;99.90;;;;;;5073620;28;20021;-70
2021/11/12 15:39:13;;;;;;;16.00;4.65;;;13.70;99.90;;;;;;5074174;28;20138;-72
2021/11/12 15:44:27;;;;;;;15.85;4.30;;;13.70;99.90;;;;;;5073381;28;20028;-73
2021/11/12 15:47:04;;;;;;;14.35;4.30;;;13.80;99.90;;;;;;5073347;28;20051;-71
2021/11/12 15:49:30;;;;;;;16.55;7.07;;;13.70;99.90;;;;;;5073748;28;20481;-72
2021/11/12 15:52:43;;;;;;;17.85;6.53;;;13.70;99.90;;;;;;5073422;28;20474;-71
2021/11/12 16:05:39;;;;;;;16.70;5.03;;;13.70;99.90;;;;;;5073014;28;20047;-73
2021/11/12 16:08:01;;;;;;;15.27;4.32;;;13.60;99.90;;;;;;5068165;28;20033;-69
2021/11/12 16:21:02;;;;;;;15.73;4.40;;;13.60;99.90;;;;;;5073390;28;20126;-71
2021/11/12 16:26:16;;;;;;;22.48;4.93;;;13.50;99.90;;;;;;5073383;28;20028;-71
2021/11/12 16:29:13;;;;;;;13.23;4.35;;;13.60;99.90;;;;;;5073010;28;20027;-72
2021/11/12 16:31:34;;;;;;;13.75;4.38;;;13.50;99.90;;;;;;5071489;28;20032;-72
2021/11/12 16:34:06;;;;;;;15.15;4.05;;;13.50;99.90;;;;;;5073872;28;20013;-73
2021/11/12 16:36:33;;;;;;;16.40;5.57;;;13.50;99.90;;;;;;5073506;28;20028;-74
2021/11/12 16:39:00;;;;;;;16.95;6.82;;;13.50;99.90;;;;;;5072838;28;20017;-70
2021/11/12 16:41:32;;;;;;;19.20;4.80;;;13.40;99.90;;;;;;5073135;28;20363;-72
2021/11/12 16:44:07;;;;;;;15.77;5.35;;;13.40;99.90;;;;;;5072978;28;20013;-71
2021/11/12 16:52:08;;;;;;;14.07;5.72;;;13.50;99.90;;;;;;5073355;28;20035;-71
2021/11/12 16:57:35;;;;;;;18.00;5.88;;;13.50;99.90;;;;;;5073004;28;20033;-72
2021/11/12 17:02:52;;;;;;;19.58;5.47;;;13.40;99.90;;;;;;5073337;28;20064;-72
2021/11/12 17:05:21;;;;;;;19.33;6.93;;;13.40;99.90;;;;;;5072998;28;20549;-73
2021/11/12 17:22:02;;;;;;;17.40;6.50;;;13.40;99.90;;;;;;5076237;28;20386;-72
2021/11/12 17:45:52;;;;;;;22.48;7.60;;;13.30;99.90;;;;;;5076087;28;20521;-71
2021/11/12 17:48:28;;;;;;;17.25;5.63;;;13.30;99.90;;;;;;5076057;28;20063;-70
2021/11/12 18:36:43;;;;;;;20.52;9.00;;;13.10;99.90;;;;;;5075861;28;20074;-71
2021/11/12 21:48:27;;;;;;;29.52;6.80;;;13.10;99.90;;;;;;5020492;28;20037;-71
2021/11/12 21:50:57;;;;;;;30.45;6.68;;;13.20;99.90;;;;;;5075752;28;20025;-71
2021/11/12 21:53:23;;;;;;;26.83;7.55;;;13.20;99.90;;;;;;5076032;28;20035;-72
2021/11/12 21:55:54;;;;;;;30.63;7.13;;;13.10;99.90;;;;;;5074971;28;20470;-72
2021/11/12 21:58:20;;;;;;;24.30;7.38;;;13.10;99.90;;;;;;5076074;28;20221;-71
2021/11/12 22:00:48;;;;;;;23.70;7.25;;;13.10;99.90;;;;;;5075532;28;20540;-74
2021/11/12 22:03:14;;;;;;;28.60;7.35;;;13.20;99.90;;;;;;5057528;28;20029;-72
2021/11/12 22:05:41;;;;;;;31.75;7.35;;;13.20;99.90;;;;;;5075718;28;20027;-70
2021/11/12 22:08:06;;;;;;;28.60;8.20;;;13.20;99.90;;;;;;5075397;28;20540;-73
2021/11/12 22:10:32;;;;;;;29.42;7.40;;;13.20;99.90;;;;;;5075377;28;20024;-73
2021/11/12 22:12:58;;;;;;;30.02;7.72;;;13.20;99.90;;;;;;5075315;28;20051;-71
2021/11/12 22:15:24;;;;;;;30.77;6.88;;;13.20;99.90;;;;;;5075286;28;20557;-73
2021/11/12 22:17:50;;;;;;;29.75;6.93;;;13.20;99.90;;;;;;5075479;28;20421;-69
2021/11/12 22:20:18;;;;;;;32.78;7.00;;;13.20;99.90;;;;;;5075102;28;20066;-72
2021/11/12 22:22:44;;;;;;;25.80;7.28;;;13.10;99.90;;;;;;5075418;28;20031;-69
2021/11/12 22:25:11;;;;;;;33.00;7.22;;;13.10;99.90;;;;;;5075091;28;20028;-73
2021/11/12 22:27:37;;;;;;;29.20;5.68;;;13.20;99.90;;;;;;5075586;28;20422;-74
2021/11/12 22:30:05;;;;;;;27.73;7.60;;;13.10;99.90;;;;;;5057053;28;20067;-69
2021/11/12 22:32:31;;;;;;;25.63;6.93;;;13.10;99.90;;;;;;5074958;28;20024;-69
2021/11/12 22:34:57;;;;;;;25.88;5.70;;;13.10;99.90;;;;;;5074878;28;20077;-72
2021/11/12 22:37:23;;;;;;;25.92;6.30;;;13.10;99.90;;;;;;5075414;28;20095;-72
2021/11/12 22:39:49;;;;;;;23.33;5.88;;;13.10;99.90;;;;;;5075062;28;20028;-71
2021/11/12 22:42:16;;;;;;;31.15;6.90;;;13.10;99.90;;;;;;5074753;28;20517;-72
2021/11/12 22:44:43;;;;;;;33.40;7.78;;;13.10;99.90;;;;;;5074630;28;20064;-71
2021/11/12 22:47:08;;;;;;;25.20;6.28;;;13.10;99.90;;;;;;5074335;28;20052;-70
2021/11/12 22:49:34;;;;;;;46.28;6.90;;;13.10;99.90;;;;;;5074586;28;20089;-70
2021/11/12 22:52:00;;;;;;;19.35;5.38;;;13.10;99.90;;;;;;5074545;28;20385;-71
2021/11/12 22:54:26;;;;;;;34.20;7.22;;;13.10;99.90;;;;;;5074539;28;20028;-73